Date,TemperatureHighF,TemperatureAvgF,TemperatureLowF,DewpointHighF,DewpointAvgF,DewpointLowF,HumidityHigh,HumidityAvg,HumidityLow,PressureMaxIn,PressureMinIn,WindSpeedMaxMPH,WindSpeedAvgMPH,GustSpeedMaxMPH,PrecipitationSumIn
2013-3-1,38.0,30.3,20.0,-99.9,-99.9,-99.9,0,0,100,0.00,40.00,96,32,0,0.01
2013-3-2,45.0,36.4,29.0,-99.9,-99.9,-99.9,0,0,100,0.00,40.00,97,28,0,0.01
2013-3-3,43.0,38.5,34.0,-99.9,-99.9,-99.9,0,0,100,0.00,40.00,89,-74,0,0.01
2013-3-4,34.0,21.8,13.0,-99.9,-99.9,-99.9,0,0,100,0.00,40.00,104,90,0,0.00
2013-3-5,42.0,28.7,11.0,-99.9,-99.9,-99.9,0,0,100,0.00,40.00,95,2,0,0.01
2013-3-6,50.0,39.2,33.0,-99.9,-99.9,-99.9,0,0,100,0.00,40.00,66,17,0,0.01
2013-3-7,50.0,41.1,35.0,-99.9,-99.9,-99.9,0,0,100,0.00,40.00,71,6,0,0.00
2013-3-8,47.0,37.5,29.0,-99.9,-99.9,-99.9,0,0,100,0.00,40.00,110,15,0,0.00
2013-3-9,31.0,25.0,19.0,-99.9,-99.9,-99.9,0,0,100,0.00,40.00,115,-30,0,0.01
2013-3-10,33.0,25.4,18.0,-99.9,-99.9,-99.9,0,0,100,0.00,40.00,106,-42,0,0.01
2013-3-11,34.0,28.3,23.0,-99.9,-99.9,-99.9,0,0,100,0.00,40.00,113,42,0,0.02
2013-3-12,37.0,28.6,19.0,-99.9,-99.9,-99.9,0,0,100,0.00,40.00,113,27,0,0.02
2013-3-13,47.0,39.0,33.0,-99.9,-99.9,-99.9,0,0,100,0.00,40.00,87,-11,0,0.01
2013-3-14,52.0,43.9,37.0,-99.9,-99.9,-99.9,0,0,100,0.00,40.00,73,-19,0,0.00
2013-3-15,56.0,47.4,43.0,-99.9,-99.9,-99.9,0,0,100,0.00,40.00,65,47,0,0.01
2013-3-16,45.0,37.1,28.0,-99.9,-99.9,-99.9,0,0,100,0.00,40.00,105,-2,0,0.00
2013-3-17,40.0,32.2,20.0,-99.9,-99.9,-99.9,0,0,100,0.00,40.00,86,-19,0,0.00
2013-3-18,31.0,24.8,15.0,-99.9,-99.9,-99.9,0,0,100,0.00,40.00,81,-24,0,0.00
2013-3-19,36.0,29.0,16.0,-99.9,-99.9,-99.9,0,0,100,0.00,40.00,106,-10,0,0.01
2013-3-20,45.0,33.6,15.0,-99.9,-99.9,-99.9,0,0,100,0.00,40.00,99,-90,0,0.01
2013-3-21,38.0,31.4,22.0,-99.9,-99.9,-99.9,0,0,100,0.00,40.00,114,-40,0,0.01
2013-3-22,29.0,22.5,15.0,-99.9,-99.9,-99.9,0,0,100,0.00,40.00,108,-194,0,0.00
2013-3-23,16.0,11.2,3.0,-99.9,-99.9,-99.9,0,0,100,0.00,40.00,107,-28,0,0.01
2013-3-24,19.0,10.5,2.0,-99.9,-99.9,-99.9,0,0,100,0.00,40.00,108,-37,0,0.01
2013-3-25,29.0,17.7,7.0,-99.9,-99.9,-99.9,0,0,100,0.00,40.00,100,-159,0,0.00
2013-3-26,40.0,32.3,19.0,-99.9,-99.9,-99.9,0,0,100,0.00,40.00,99,-24,0,0.01
2013-3-27,46.0,36.3,25.0,-99.9,-99.9,-99.9,0,0,100,0.00,40.00,108,-142,0,0.00
2013-3-28,50.0,39.1,27.0,-99.9,-99.9,-99.9,0,0,100,0.00,40.00,104,-50,0,0.00
2013-3-29,50.0,42.5,32.0,-99.9,-99.9,-99.9,0,0,100,0.00,40.00,97,-9,0,0.00
2013-3-30,47.0,38.5,32.0,-99.9,-99.9,-99.9,0,0,100,0.00,40.00,114,-38,0,0.00
2013-3-31,54.0,40.3,31.0,-99.9,-99.9,-99.9,0,0,100,0.00,40.00,92,-72,0,0.01